Time;durP1;ratioP1;P1;durP2;ratioP2;P2;SDS_P1;SDS_P2;PMS_P1;PMS_P2;Temp;Humidity;BMP_temperature;BMP_pressure;BME280_temperature;BME280_humidity;BME280_pressure;Samples;Min_cycle;Max_cycle;Signal;HPM_P1;HPM_P2
2023/05/18 00:02:02;;;;;;;10.40;2.25;;;8.70;99.90;;;;;;5044499;28;20166;-75
2023/05/18 00:04:35;;;;;;;10.82;2.30;;;8.70;99.90;;;;;;5050299;28;20581;-75
2023/05/18 00:07:02;;;;;;;13.98;2.92;;;8.70;99.90;;;;;;5053194;28;20497;-75
2023/05/18 00:09:30;;;;;;;9.52;2.15;;;8.70;99.90;;;;;;5062625;28;20032;-76
2023/05/18 00:11:57;;;;;;;9.63;2.33;;;8.70;99.90;;;;;;5054686;28;20172;-76
2023/05/18 00:14:23;;;;;;;11.60;2.60;;;8.70;99.90;;;;;;5078909;28;20040;-76
2023/05/18 00:16:49;;;;;;;11.63;2.45;;;8.70;99.90;;;;;;5046568;28;20041;-76
2023/05/18 00:19:15;;;;;;;10.13;2.80;;;8.70;99.90;;;;;;5077264;28;20030;-76
2023/05/18 00:21:42;;;;;;;13.70;2.40;;;8.70;99.90;;;;;;5068988;28;20445;-75
2023/05/18 00:24:11;;;;;;;11.75;2.38;;;8.70;99.90;;;;;;5064721;28;20029;-75
2023/05/18 00:26:38;;;;;;;11.18;2.38;;;8.70;99.90;;;;;;5045761;28;20115;-75
2023/05/18 00:29:05;;;;;;;9.13;2.38;;;8.70;99.90;;;;;;5038217;28;20045;-76
2023/05/18 00:31:38;;;;;;;11.93;2.60;;;8.70;99.90;;;;;;5050314;28;20056;-76
2023/05/18 00:34:07;;;;;;;11.40;2.58;;;8.60;99.90;;;;;;5060173;28;20401;-75
2023/05/18 00:36:33;;;;;;;9.38;2.47;;;8.70;99.90;;;;;;5055840;28;20115;-75
2023/05/18 00:38:59;;;;;;;9.98;2.35;;;8.70;99.90;;;;;;5063708;28;20250;-75
2023/05/18 00:41:26;;;;;;;9.52;2.25;;;8.70;99.90;;;;;;5052510;28;20232;-75
2023/05/18 00:43:56;;;;;;;9.05;2.35;;;8.70;99.90;;;;;;5053366;28;20040;-75
2023/05/18 00:46:26;;;;;;;11.70;2.60;;;8.60;99.90;;;;;;5037480;28;20043;-76
2023/05/18 00:48:53;;;;;;;10.50;2.40;;;8.60;99.90;;;;;;5059563;28;20079;-75
2023/05/18 00:51:24;;;;;;;7.82;2.20;;;8.60;99.90;;;;;;5057508;28;20043;-76
2023/05/18 00:53:51;;;;;;;12.10;2.47;;;8.60;99.90;;;;;;5048394;28;20053;-75
2023/05/18 00:56:18;;;;;;;8.13;2.42;;;8.60;99.90;;;;;;5030915;28;20033;-75
2023/05/18 00:58:44;;;;;;;11.68;2.70;;;8.50;99.90;;;;;;5041684;28;20498;-76
2023/05/18 01:01:10;;;;;;;11.35;2.55;;;8.60;99.90;;;;;;5050988;28;20044;-76
2023/05/18 01:03:37;;;;;;;8.75;2.47;;;8.50;99.90;;;;;;5043506;28;20035;-76
2023/05/18 01:06:08;;;;;;;10.52;2.50;;;8.50;99.90;;;;;;5051736;28;20055;-76
2023/05/18 01:08:35;;;;;;;11.18;2.63;;;8.50;99.90;;;;;;5056478;28;20065;-76
2023/05/18 01:11:23;;;;;;;12.52;2.55;;;8.60;99.90;;;;;;5049985;28;20040;-76
2023/05/18 01:14:18;;;;;;;9.35;2.42;;;8.50;99.90;;;;;;5055159;28;20048;-75
2023/05/18 01:16:53;;;;;;;13.50;2.83;;;8.50;99.90;;;;;;5057871;28;20430;-75
2023/05/18 01:19:22;;;;;;;11.75;2.58;;;8.60;99.90;;;;;;5050098;28;20064;-76
2023/05/18 01:22:23;;;;;;;10.80;2.60;;;8.60;99.90;;;;;;5054717;28;20040;-76
2023/05/18 01:24:52;;;;;;;10.43;2.65;;;8.60;99.90;;;;;;5049704;28;20063;-76
2023/05/18 01:27:23;;;;;;;9.13;2.53;;;8.60;99.90;;;;;;5033186;28;20036;-76
2023/05/18 01:29:50;;;;;;;9.85;2.53;;;8.60;99.90;;;;;;5043466;28;20050;-76
2023/05/18 01:32:19;;;;;;;9.23;2.80;;;8.60;99.90;;;;;;5048244;28;20105;-76
2023/05/18 01:34:45;;;;;;;11.48;2.72;;;8.60;99.90;;;;;;5046614;28;20630;-76
2023/05/18 01:37:11;;;;;;;11.18;2.55;;;8.70;99.90;;;;;;5048668;28;20060;-75
2023/05/18 01:39:37;;;;;;;12.68;2.53;;;8.60;99.90;;;;;;5054393;28;20079;-75
2023/05/18 01:42:11;;;;;;;12.82;2.92;;;8.60;99.90;;;;;;5044892;28;20251;-76
2023/05/18 01:44:44;;;;;;;10.98;2.70;;;8.70;99.90;;;;;;5053705;28;20505;-76
2023/05/18 01:47:13;;;;;;;10.43;2.50;;;8.70;99.90;;;;;;5049275;28;20036;-75
2023/05/18 01:49:50;;;;;;;9.50;2.60;;;8.70;99.90;;;;;;5051760;28;20032;-76
2023/05/18 01:52:20;;;;;;;11.27;2.53;;;8.70;99.90;;;;;;5051313;28;20425;-76
2023/05/18 01:54:53;;;;;;;13.95;2.88;;;8.70;99.90;;;;;;5037986;28;20052;-76
2023/05/18 01:57:26;;;;;;;9.88;2.60;;;8.70;99.90;;;;;;5039129;28;20051;-76
2023/05/18 01:59:54;;;;;;;10.07;2.85;;;8.70;99.90;;;;;;5059151;28;20055;-75
2023/05/18 02:02:20;;;;;;;9.95;2.60;;;8.70;99.90;;;;;;5027306;28;20442;-75
2023/05/18 02:04:46;;;;;;;12.55;2.78;;;8.70;99.90;;;;;;5074481;28;20048;-75
2023/05/18 02:07:11;;;;;;;7.97;2.40;;;8.70;99.90;;;;;;5028291;28;20039;-75
2023/05/18 02:09:37;;;;;;;11.32;2.60;;;8.90;99.90;;;;;;5055634;28;21790;-75
2023/05/18 02:12:03;;;;;;;10.90;2.33;;;8.80;99.90;;;;;;5043893;28;20046;-76
2023/05/18 02:14:29;;;;;;;9.82;3.00;;;8.80;99.90;;;;;;5044654;28;20102;-76
2023/05/18 02:16:56;;;;;;;9.95;2.92;;;8.70;99.90;;;;;;5049484;28;20078;-75
2023/05/18 02:19:24;;;;;;;11.07;3.30;;;8.70;99.90;;;;;;5037629;28;20051;-76
2023/05/18 02:21:50;;;;;;;14.95;3.58;;;8.70;99.90;;;;;;5049804;28;20040;-75
2023/05/18 02:24:17;;;;;;;14.10;3.33;;;7.80;99.90;;;;;;5057762;28;20033;-75
2023/05/18 02:26:43;;;;;;;11.68;3.10;;;8.70;99.90;;;;;;5048529;28;20048;-75
2023/05/18 02:29:10;;;;;;;10.98;2.88;;;8.70;99.90;;;;;;5044929;28;20453;-75
2023/05/18 02:31:39;;;;;;;12.60;3.60;;;8.70;99.90;;;;;;5046924;28;20044;-76
2023/05/18 02:34:05;;;;;;;12.73;3.08;;;8.70;99.90;;;;;;5053569;28;20394;-75
2023/05/18 02:36:41;;;;;;;10.20;2.95;;;8.70;99.90;;;;;;5052448;28;20043;-75
2023/05/18 02:39:08;;;;;;;8.70;3.03;;;8.70;99.90;;;;;;5048300;28;20067;-75
2023/05/18 02:41:35;;;;;;;8.05;2.42;;;8.70;99.90;;;;;;5056386;28;20382;-75
2023/05/18 02:44:02;;;;;;;12.65;2.97;;;8.70;99.90;;;;;;5044701;28;20119;-76
2023/05/18 02:46:28;;;;;;;12.93;2.95;;;8.70;99.90;;;;;;5052577;28;20044;-75
2023/05/18 02:48:53;;;;;;;11.10;2.85;;;8.70;99.90;;;;;;5048013;28;20037;-75
2023/05/18 02:51:20;;;;;;;10.38;2.78;;;8.70;99.90;;;;;;5049068;28;20040;-75
2023/05/18 02:53:46;;;;;;;10.95;3.13;;;8.70;99.90;;;;;;5052257;28;20040;-76
2023/05/18 02:56:12;;;;;;;14.00;3.17;;;8.70;99.90;;;;;;5048223;28;20046;-75
2023/05/18 02:58:38;;;;;;;12.80;2.97;;;8.70;99.90;;;;;;5061801;28;20386;-76
2023/05/18 03:01:08;;;;;;;13.45;3.20;;;8.80;99.90;;;;;;5050613;28;20093;-75
2023/05/18 03:03:34;;;;;;;11.85;2.85;;;8.70;99.90;;;;;;5051389;28;20032;-75
2023/05/18 03:06:04;;;;;;;12.05;2.85;;;8.70;99.90;;;;;;5054719;28;20052;-75
2023/05/18 03:08:30;;;;;;;12.77;3.38;;;8.70;99.90;;;;;;5029412;28;20044;-75
2023/05/18 03:10:57;;;;;;;16.35;3.40;;;8.70;99.90;;;;;;5047357;28;20291;-75
2023/05/18 03:13:23;;;;;;;10.88;2.88;;;8.70;99.90;;;;;;5050431;28;20142;-75
2023/05/18 03:15:49;;;;;;;10.68;2.60;;;8.70;99.90;;;;;;5038020;28;20437;-76
2023/05/18 03:18:16;;;;;;;10.45;2.78;;;8.70;99.90;;;;;;5050938;28;20404;-76
2023/05/18 03:20:43;;;;;;;12.02;3.10;;;8.70;99.90;;;;;;5056868;28;20044;-76
2023/05/18 03:23:08;;;;;;;9.85;2.83;;;8.70;99.90;;;;;;5044641;28;20058;-76
2023/05/18 03:25:36;;;;;;;8.32;2.58;;;8.60;99.90;;;;;;5050615;28;20553;-76
2023/05/18 03:28:03;;;;;;;10.60;3.08;;;8.70;99.90;;;;;;5052089;28;20486;-75
2023/05/18 03:30:33;;;;;;;10.27;2.50;;;8.70;99.90;;;;;;5050017;28;20042;-75
2023/05/18 03:33:03;;;;;;;9.38;2.50;;;8.70;99.90;;;;;;5054967;28;20028;-76
2023/05/18 03:35:29;;;;;;;9.98;2.53;;;8.70;99.90;;;;;;5038729;28;20466;-75
2023/05/18 03:37:54;;;;;;;11.65;2.60;;;8.70;99.90;;;;;;5043497;28;20075;-75
2023/05/18 03:40:21;;;;;;;11.85;2.95;;;8.70;99.90;;;;;;5047264;28;20087;-76
2023/05/18 03:42:47;;;;;;;12.85;2.85;;;8.70;99.90;;;;;;5050919;28;20131;-76
2023/05/18 03:45:13;;;;;;;10.40;2.60;;;8.70;99.90;;;;;;5055262;28;20068;-75
2023/05/18 03:47:39;;;;;;;9.93;2.78;;;8.70;99.90;;;;;;5058076;28;20486;-75
2023/05/18 03:50:06;;;;;;;9.50;2.50;;;8.70;99.90;;;;;;5056004;28;20122;-75
2023/05/18 03:52:33;;;;;;;12.82;2.80;;;8.70;99.90;;;;;;5056846;28;20158;-76
2023/05/18 03:55:00;;;;;;;9.93;2.83;;;8.80;99.90;;;;;;5048949;28;20051;-76
2023/05/18 03:57:27;;;;;;;10.75;2.53;;;8.80;99.90;;;;;;5057841;28;20040;-76
2023/05/18 03:59:53;;;;;;;9.38;2.20;;;8.80;99.90;;;;;;5054802;28;20106;-75
2023/05/18 04:02:19;;;;;;;8.52;2.35;;;8.80;99.90;;;;;;5064070;28;20555;-75
2023/05/18 04:04:46;;;;;;;9.88;2.72;;;8.80;99.90;;;;;;5061393;28;20036;-75
2023/05/18 04:07:15;;;;;;;11.05;2.65;;;8.80;99.90;;;;;;5057285;28;20037;-76
2023/05/18 04:09:41;;;;;;;16.15;2.55;;;8.80;99.90;;;;;;5053927;28;20401;-76
2023/05/18 04:12:08;;;;;;;10.52;2.30;;;8.80;99.90;;;;;;5053411;28;20036;-76
2023/05/18 04:14:34;;;;;;;10.00;2.80;;;8.80;99.90;;;;;;5053971;28;20409;-76
2023/05/18 04:17:06;;;;;;;8.95;2.40;;;8.80;99.90;;;;;;5049798;28;20036;-76
2023/05/18 04:19:33;;;;;;;10.88;2.50;;;8.90;99.90;;;;;;5050312;28;20210;-76
2023/05/18 04:21:59;;;;;;;13.25;2.92;;;8.80;99.90;;;;;;5076816;28;20146;-76
2023/05/18 04:24:28;;;;;;;11.38;2.30;;;8.80;99.90;;;;;;5063002;28;20051;-76
2023/05/18 04:26:54;;;;;;;8.93;2.35;;;8.80;99.90;;;;;;5057014;28;20040;-75
2023/05/18 04:29:21;;;;;;;16.52;2.95;;;8.90;99.90;;;;;;5053008;28;20051;-75
2023/05/18 04:31:47;;;;;;;9.65;2.60;;;8.90;99.90;;;;;;5051230;28;20040;-76
2023/05/18 04:34:12;;;;;;;10.38;3.08;;;8.90;99.90;;;;;;5050672;28;20038;-76
2023/05/18 04:36:41;;;;;;;10.48;2.50;;;8.90;99.90;;;;;;5046553;28;20033;-75
2023/05/18 04:39:08;;;;;;;10.73;2.25;;;8.90;99.90;;;;;;5057680;28;20044;-76
2023/05/18 04:41:34;;;;;;;11.38;2.60;;;8.90;99.90;;;;;;5039913;28;20040;-76
2023/05/18 04:44:00;;;;;;;9.10;2.17;;;9.00;99.90;;;;;;5063220;28;20033;-75
2023/05/18 04:46:27;;;;;;;10.15;2.60;;;9.00;99.90;;;;;;5076223;28;20032;-76
2023/05/18 04:48:56;;;;;;;12.13;2.70;;;9.00;99.90;;;;;;5051817;28;20075;-75
2023/05/18 04:51:23;;;;;;;12.40;2.92;;;9.00;99.90;;;;;;5059197;28;20044;-76
2023/05/18 04:53:52;;;;;;;11.18;2.50;;;9.10;99.90;;;;;;5052346;28;20516;-76
2023/05/18 04:56:21;;;;;;;10.45;2.67;;;8.70;99.90;;;;;;5054083;28;20033;-75
2023/05/18 04:58:48;;;;;;;10.95;2.65;;;9.10;99.90;;;;;;5052975;28;20052;-76
2023/05/18 05:01:14;;;;;;;12.45;2.60;;;9.10;99.90;;;;;;5037238;28;20077;-76
2023/05/18 05:03:43;;;;;;;10.30;2.50;;;9.10;99.90;;;;;;5057163;28;20039;-76
2023/05/18 05:06:10;;;;;;;13.55;2.70;;;9.10;99.90;;;;;;5038303;28;20033;-76
2023/05/18 05:08:36;;;;;;;13.52;3.00;;;9.10;99.90;;;;;;5064942;28;20047;-75
2023/05/18 05:11:03;;;;;;;10.15;2.40;;;9.20;99.90;;;;;;5070883;28;20409;-75
2023/05/18 05:13:28;;;;;;;9.70;2.65;;;9.20;99.90;;;;;;5049010;28;20066;-76
2023/05/18 05:15:54;;;;;;;14.45;2.80;;;9.20;99.90;;;;;;5054385;28;20045;-76
2023/05/18 05:18:20;;;;;;;12.45;2.53;;;9.20;99.90;;;;;;5051546;28;20473;-76
2023/05/18 05:20:47;;;;;;;8.95;2.75;;;9.20;99.90;;;;;;5059335;28;20043;-76
2023/05/18 05:23:12;;;;;;;11.25;3.10;;;9.20;99.90;;;;;;5052103;28;20071;-76
2023/05/18 05:25:38;;;;;;;9.75;2.30;;;9.20;99.90;;;;;;5026734;28;20059;-75
2023/05/18 05:28:04;;;;;;;11.18;2.95;;;9.30;99.90;;;;;;5036424;28;20494;-75
2023/05/18 05:30:31;;;;;;;9.77;2.60;;;9.30;99.90;;;;;;5050114;28;20048;-75
2023/05/18 05:32:57;;;;;;;10.77;2.63;;;9.30;99.90;;;;;;5052980;28;20056;-76
2023/05/18 05:35:22;;;;;;;10.55;2.70;;;9.30;99.90;;;;;;5030100;28;20051;-76
2023/05/18 05:37:48;;;;;;;12.73;2.90;;;9.30;99.90;;;;;;5064691;28;20036;-75
2023/05/18 05:40:14;;;;;;;9.57;2.45;;;9.40;99.90;;;;;;5046083;28;20738;-76
2023/05/18 05:42:40;;;;;;;12.32;2.95;;;9.40;99.90;;;;;;5051287;28;20075;-76
2023/05/18 05:45:07;;;;;;;12.57;2.60;;;9.50;99.90;;;;;;5056292;28;20041;-76
2023/05/18 05:47:32;;;;;;;10.77;2.70;;;9.50;99.90;;;;;;5051060;28;20127;-76
2023/05/18 05:49:58;;;;;;;11.98;2.70;;;9.50;99.90;;;;;;5059430;28;20060;-76
2023/05/18 05:52:27;;;;;;;10.10;2.72;;;9.60;99.90;;;;;;5050376;28;20075;-75
2023/05/18 05:54:53;;;;;;;13.75;2.78;;;9.70;99.90;;;;;;5049094;28;20509;-76
2023/05/18 05:57:19;;;;;;;9.90;2.60;;;9.70;99.90;;;;;;5044633;28;20037;-75
2023/05/18 05:59:45;;;;;;;10.35;2.60;;;9.70;99.90;;;;;;5051523;28;20052;-76
2023/05/18 06:02:13;;;;;;;12.85;2.53;;;9.80;99.90;;;;;;5051081;28;20123;-76
2023/05/18 06:04:40;;;;;;;14.80;2.40;;;9.90;99.90;;;;;;5041318;28;20524;-76
2023/05/18 06:07:06;;;;;;;12.98;2.67;;;10.00;99.90;;;;;;5051212;28;20020;-75
2023/05/18 06:09:31;;;;;;;10.80;2.63;;;10.00;99.90;;;;;;5042756;28;20130;-76
2023/05/18 06:11:57;;;;;;;10.45;2.67;;;10.10;99.90;;;;;;5036457;28;20029;-75
2023/05/18 06:14:23;;;;;;;12.45;2.80;;;10.20;99.90;;;;;;5036138;28;20036;-75
2023/05/18 06:16:49;;;;;;;9.98;2.33;;;10.30;99.90;;;;;;5051953;28;20572;-75
2023/05/18 06:19:14;;;;;;;9.32;2.10;;;10.40;99.90;;;;;;5042812;28;20033;-76
2023/05/18 06:21:40;;;;;;;10.13;2.38;;;10.50;99.90;;;;;;5049326;28;20042;-75
2023/05/18 06:24:06;;;;;;;10.77;2.88;;;10.60;99.90;;;;;;5048168;28;20031;-75
2023/05/18 06:26:31;;;;;;;9.77;2.63;;;10.70;99.90;;;;;;5039133;28;20079;-75
2023/05/18 06:28:57;;;;;;;16.15;2.58;;;10.80;99.90;;;;;;5044510;28;20047;-76
2023/05/18 06:31:23;;;;;;;9.35;2.55;;;10.80;99.90;;;;;;5038170;28;20040;-75
2023/05/18 06:33:49;;;;;;;9.25;2.70;;;10.80;99.90;;;;;;5044921;28;20513;-75
2023/05/18 06:36:15;;;;;;;9.80;2.35;;;10.90;99.90;;;;;;5057453;28;20445;-76
2023/05/18 06:38:41;;;;;;;11.50;2.40;;;10.90;99.90;;;;;;5037632;28;20119;-75
2023/05/18 06:41:07;;;;;;;10.55;2.25;;;11.00;99.90;;;;;;5058675;28;20032;-75
2023/05/18 06:43:33;;;;;;;10.35;2.60;;;11.00;99.90;;;;;;5034914;28;20036;-75
2023/05/18 06:45:58;;;;;;;9.80;2.60;;;11.00;99.90;;;;;;5044484;28;20032;-75
2023/05/18 06:48:27;;;;;;;8.65;2.40;;;11.00;99.90;;;;;;5046592;28;20036;-76
2023/05/18 06:50:53;;;;;;;12.73;2.72;;;11.00;99.90;;;;;;5045604;28;20041;-76
2023/05/18 06:53:18;;;;;;;11.90;2.45;;;11.00;99.90;;;;;;5049066;28;20044;-75
2023/05/18 06:55:44;;;;;;;9.88;2.47;;;11.00;99.90;;;;;;5051824;28;20128;-76
2023/05/18 06:58:10;;;;;;;12.27;2.58;;;11.00;99.90;;;;;;5034159;28;20428;-76
2023/05/18 07:00:37;;;;;;;10.05;2.33;;;11.10;99.90;;;;;;5040571;28;20057;-76
2023/05/18 07:03:03;;;;;;;12.68;2.50;;;11.10;99.90;;;;;;5059225;28;20036;-76
2023/05/18 07:05:29;;;;;;;10.40;2.40;;;11.20;99.90;;;;;;5056493;28;20062;-76
2023/05/18 07:07:55;;;;;;;8.88;2.15;;;11.30;99.90;;;;;;5044280;28;20606;-75
2023/05/18 07:10:21;;;;;;;11.48;2.50;;;11.40;99.90;;;;;;5052923;28;20040;-75
2023/05/18 07:12:48;;;;;;;10.50;2.65;;;11.50;99.90;;;;;;5051358;28;20501;-76
2023/05/18 07:15:14;;;;;;;10.15;2.30;;;11.60;99.90;;;;;;5044636;28;20055;-76
2023/05/18 07:17:40;;;;;;;9.60;2.33;;;11.70;99.90;;;;;;5069102;28;20033;-76
2023/05/18 07:20:06;;;;;;;13.48;2.60;;;11.80;99.90;;;;;;5034039;28;20153;-76
2023/05/18 07:22:33;;;;;;;9.57;2.47;;;11.80;99.90;;;;;;5050432;28;20040;-76
2023/05/18 07:24:59;;;;;;;10.35;2.80;;;11.70;99.90;;;;;;5042870;28;20421;-76
2023/05/18 07:27:26;;;;;;;9.02;2.30;;;11.70;99.90;;;;;;5050045;28;20409;-76
2023/05/18 07:29:52;;;;;;;11.02;2.40;;;11.70;99.90;;;;;;5048453;28;20072;-76
2023/05/18 07:32:18;;;;;;;11.85;2.70;;;11.80;99.90;;;;;;5077066;28;20067;-76
2023/05/18 07:34:45;;;;;;;10.48;2.63;;;11.80;99.90;;;;;;5051652;28;20432;-76
2023/05/18 07:37:11;;;;;;;11.05;2.72;;;11.80;99.90;;;;;;5054143;28;20051;-75
2023/05/18 07:39:37;;;;;;;8.00;2.40;;;11.80;99.90;;;;;;5050725;28;20040;-76
2023/05/18 07:42:04;;;;;;;10.23;2.50;;;11.80;99.90;;;;;;5049670;28;20097;-76
2023/05/18 07:44:30;;;;;;;9.90;2.40;;;11.80;99.90;;;;;;5047242;28;20086;-76
2023/05/18 07:46:55;;;;;;;10.77;2.40;;;11.80;99.90;;;;;;5044583;28;20043;-76
2023/05/18 07:49:24;;;;;;;11.18;2.17;;;11.80;99.90;;;;;;5053249;28;20081;-76
2023/05/18 07:51:51;;;;;;;12.15;2.45;;;11.80;99.90;;;;;;5049652;28;20121;-75
2023/05/18 07:54:18;;;;;;;10.82;2.58;;;11.90;99.90;;;;;;5043998;28;20056;-76
2023/05/18 07:56:43;;;;;;;10.23;2.60;;;12.00;99.90;;;;;;5050426;28;20044;-76
2023/05/18 07:59:10;;;;;;;10.48;2.33;;;12.10;99.90;;;;;;5050108;28;20055;-76
2023/05/18 08:01:37;;;;;;;8.52;2.22;;;12.10;99.90;;;;;;5051959;28;20028;-76
2023/05/18 08:04:03;;;;;;;7.88;2.22;;;12.10;99.90;;;;;;5071690;28;20036;-76
2023/05/18 08:06:29;;;;;;;10.43;2.53;;;12.20;99.90;;;;;;5060114;28;20264;-76
2023/05/18 08:08:55;;;;;;;9.07;2.50;;;12.30;99.90;;;;;;5048854;28;20119;-75
2023/05/18 08:11:22;;;;;;;10.82;2.72;;;12.50;99.90;;;;;;5032479;28;20040;-76
2023/05/18 08:13:48;;;;;;;9.48;2.55;;;12.50;99.90;;;;;;5050534;28;20044;-75
2023/05/18 08:16:14;;;;;;;9.77;2.30;;;12.50;99.90;;;;;;5047807;28;20046;-75
2023/05/18 08:18:40;;;;;;;13.75;3.05;;;12.50;99.90;;;;;;5033307;28;20394;-76
2023/05/18 08:21:08;;;;;;;9.75;2.53;;;12.60;99.90;;;;;;5047781;28;20151;-76
2023/05/18 08:23:34;;;;;;;9.32;2.65;;;12.60;99.90;;;;;;5046329;28;20114;-76
2023/05/18 08:26:02;;;;;;;9.73;2.30;;;12.60;99.90;;;;;;5051965;28;21487;-75
2023/05/18 08:28:29;;;;;;;10.23;2.70;;;12.60;99.90;;;;;;5051309;28;20047;-76
2023/05/18 08:30:55;;;;;;;9.98;2.40;;;12.70;99.90;;;;;;5053548;28;20051;-76
2023/05/18 08:33:22;;;;;;;8.95;2.65;;;12.60;99.90;;;;;;5048555;28;20032;-75
2023/05/18 08:35:48;;;;;;;10.18;2.45;;;12.80;99.90;;;;;;5051471;28;20215;-75
2023/05/18 08:38:15;;;;;;;8.90;2.30;;;12.90;99.90;;;;;;5054723;28;20067;-76
2023/05/18 08:41:07;;;;;;;10.75;2.58;;;13.00;99.90;;;;;;5051326;28;20219;-76
2023/05/18 08:43:36;;;;;;;11.45;2.17;;;13.10;99.90;;;;;;5053388;28;20036;-75
2023/05/18 08:46:38;;;;;;;9.50;2.65;;;13.10;99.90;;;;;;5058566;28;20036;-75
2023/05/18 08:49:05;;;;;;;8.40;2.30;;;13.20;99.90;;;;;;5042422;28;20047;-75
2023/05/18 08:51:34;;;;;;;10.82;2.42;;;13.40;99.90;;;;;;5055563;28;20512;-75
2023/05/18 08:54:01;;;;;;;9.93;2.33;;;13.50;99.90;;;;;;5069216;28;20040;-76
2023/05/18 08:56:31;;;;;;;9.15;2.25;;;13.70;99.90;;;;;;5069868;28;20044;-76
2023/05/18 08:58:58;;;;;;;9.90;2.15;;;13.60;99.90;;;;;;5059659;28;20032;-76
2023/05/18 09:01:27;;;;;;;11.25;2.58;;;13.50;99.90;;;;;;5047321;28;20032;-76
2023/05/18 09:03:56;;;;;;;8.90;2.25;;;13.40;99.90;;;;;;5053512;28;20046;-76
2023/05/18 09:06:29;;;;;;;10.52;2.03;;;13.40;99.90;;;;;;5043592;28;20051;-76
2023/05/18 09:08:58;;;;;;;;;;;13.40;99.90;;;;;;5038672;28;20484;-76
2023/05/18 09:11:25;;;;;;;8.90;2.22;;;13.60;99.90;;;;;;5056433;28;19970;-76
2023/05/18 09:13:51;;;;;;;7.90;2.10;;;13.70;99.90;;;;;;5049513;28;20045;-76
2023/05/18 09:16:17;;;;;;;11.07;2.38;;;13.80;99.90;;;;;;5045362;28;20032;-76
2023/05/18 09:18:43;;;;;;;9.63;2.47;;;13.80;99.90;;;;;;5045669;28;20070;-76
2023/05/18 09:21:10;;;;;;;10.13;2.60;;;13.90;99.90;;;;;;5058657;28;20040;-76
2023/05/18 09:23:40;;;;;;;10.80;2.80;;;14.00;99.90;;;;;;5049058;28;20036;-76
2023/05/18 09:26:08;;;;;;;9.30;2.45;;;14.10;99.90;;;;;;5054215;28;20036;-76
2023/05/18 09:28:39;;;;;;;8.40;2.45;;;14.00;99.90;;;;;;5054807;28;20105;-76
2023/05/18 09:31:14;;;;;;;8.50;2.35;;;14.10;99.90;;;;;;5052335;28;20325;-76
2023/05/18 09:33:43;;;;;;;9.40;2.50;;;14.00;99.90;;;;;;5049500;28;20131;-76
2023/05/18 09:36:10;;;;;;;12.15;2.30;;;14.10;99.90;;;;;;5062214;28;20127;-76
2023/05/18 09:38:46;;;;;;;8.50;2.10;;;14.20;99.90;;;;;;5059439;28;20078;-76
2023/05/18 09:41:16;;;;;;;9.63;2.80;;;14.40;99.90;;;;;;5056201;28;20043;-75
2023/05/18 09:43:50;;;;;;;9.20;2.30;;;14.40;99.90;;;;;;5038098;28;20045;-76
2023/05/18 09:46:16;;;;;;;7.68;2.15;;;14.30;99.90;;;;;;5054775;28;20481;-75
2023/05/18 09:48:49;;;;;;;9.88;2.40;;;14.40;99.90;;;;;;5057307;28;20510;-75
2023/05/18 09:51:16;;;;;;;8.32;2.17;;;14.50;99.90;;;;;;5050922;28;20051;-75
2023/05/18 09:53:54;;;;;;;8.73;2.20;;;14.50;99.90;;;;;;5047702;28;20556;-75
2023/05/18 09:56:22;;;;;;;10.82;2.30;;;14.60;99.90;;;;;;5054905;28;20041;-75
2023/05/18 09:58:48;;;;;;;11.07;2.35;;;14.80;99.90;;;;;;5056708;28;20105;-75
2023/05/18 10:01:14;;;;;;;9.13;2.15;;;15.00;99.90;;;;;;5052730;28;20044;-76
2023/05/18 10:03:40;;;;;;;11.57;2.10;;;15.20;99.90;;;;;;5050176;28;20044;-74
2023/05/18 10:06:08;;;;;;;9.10;2.22;;;15.30;99.90;;;;;;5048706;28;20040;-74
2023/05/18 10:08:35;;;;;;;10.38;2.15;;;15.30;99.90;;;;;;5052509;28;20804;-75
2023/05/18 10:11:01;;;;;;;8.45;2.25;;;15.20;99.90;;;;;;5047030;28;20140;-75
2023/05/18 10:13:30;;;;;;;10.95;3.10;;;15.20;99.90;;;;;;5045040;28;20418;-74
2023/05/18 10:16:01;;;;;;;11.20;5.00;;;15.20;99.90;;;;;;5057402;28;20379;-75
2023/05/18 10:18:32;;;;;;;13.27;4.95;;;15.40;99.90;;;;;;5052347;28;20406;-77
2023/05/18 10:21:00;;;;;;;9.80;2.50;;;15.60;99.90;;;;;;5049488;28;20036;-76
2023/05/18 10:23:29;;;;;;;9.90;2.50;;;15.80;99.90;;;;;;5049994;28;20040;-74
2023/05/18 10:25:55;;;;;;;7.60;2.40;;;15.60;99.90;;;;;;5052466;28;20051;-74
2023/05/18 10:28:27;;;;;;;10.77;2.80;;;15.60;99.90;;;;;;5045962;28;20051;-74
2023/05/18 10:30:54;;;;;;;13.95;3.30;;;15.70;99.90;;;;;;5064710;28;20033;-75
2023/05/18 10:33:23;;;;;;;12.05;2.95;;;15.80;99.90;;;;;;5044651;28;20050;-75
2023/05/18 10:35:49;;;;;;;8.63;2.45;;;15.80;99.90;;;;;;5055080;28;20040;-75
2023/05/18 10:38:23;;;;;;;8.88;2.58;;;15.60;99.90;;;;;;5056408;28;20109;-74
2023/05/18 10:40:52;;;;;;;13.90;3.53;;;15.60;99.90;;;;;;5045268;28;20036;-74
2023/05/18 10:43:20;;;;;;;12.85;2.53;;;15.50;99.90;;;;;;5050099;28;20101;-74
2023/05/18 10:45:50;;;;;;;18.92;7.65;;;15.50;99.90;;;;;;5019369;28;20305;-75
2023/05/18 10:48:17;;;;;;;15.70;7.85;;;15.50;99.90;;;;;;5040061;28;20032;-74
2023/05/18 10:50:43;;;;;;;17.23;5.55;;;15.60;99.90;;;;;;5068499;28;20040;-74
2023/05/18 10:53:10;;;;;;;12.13;2.80;;;15.70;99.90;;;;;;5031148;28;20108;-74
2023/05/18 10:55:36;;;;;;;11.63;2.38;;;15.60;99.90;;;;;;5050976;28;20131;-74
2023/05/18 10:58:09;;;;;;;15.15;3.30;;;15.70;99.90;;;;;;5040389;28;20556;-75
2023/05/18 11:00:38;;;;;;;14.65;2.90;;;15.70;99.90;;;;;;5048569;28;20103;-75
2023/05/18 11:03:12;;;;;;;8.45;2.38;;;15.60;99.90;;;;;;5049444;28;20558;-75
2023/05/18 11:05:39;;;;;;;10.25;2.50;;;15.50;99.90;;;;;;5050155;28;20350;-79
2023/05/18 11:08:05;;;;;;;9.13;2.50;;;15.50;99.90;;;;;;5043306;28;20374;-78
2023/05/18 11:10:46;;;;;;;10.70;2.60;;;15.30;99.90;;;;;;5047998;28;20190;-79
2023/05/18 11:13:13;;;;;;;12.52;2.70;;;15.00;99.90;;;;;;5051674;28;20076;-78
2023/05/18 11:15:54;;;;;;;9.10;2.50;;;15.10;99.90;;;;;;5055507;28;20111;-80
2023/05/18 11:18:50;;;;;;;9.23;2.20;;;15.10;99.90;;;;;;5043026;28;20037;-79
2023/05/18 11:21:34;;;;;;;9.27;2.58;;;15.20;99.90;;;;;;5046224;28;20056;-81
2023/05/18 11:24:22;;;;;;;10.30;2.63;;;15.30;99.90;;;;;;5053362;28;20514;-76
2023/05/18 11:27:02;;;;;;;8.13;2.58;;;15.30;99.90;;;;;;5043750;28;20049;-77
2023/05/18 11:29:39;;;;;;;9.73;2.40;;;15.40;99.90;;;;;;5040280;28;20181;-77
2023/05/18 11:32:26;;;;;;;10.10;2.35;;;15.60;99.90;;;;;;5045983;28;20047;-77
2023/05/18 11:34:53;;;;;;;9.80;2.40;;;15.80;99.90;;;;;;5049359;28;20192;-76
2023/05/18 11:37:43;;;;;;;8.65;2.38;;;16.00;99.90;;;;;;5048026;28;20222;-78
2023/05/18 11:40:12;;;;;;;9.13;2.20;;;16.20;99.90;;;;;;5025808;28;20197;-76
2023/05/18 11:42:38;;;;;;;9.25;2.30;;;16.20;99.90;;;;;;5049180;28;20064;-77
2023/05/18 11:45:08;;;;;;;14.57;2.75;;;16.20;99.90;;;;;;5046796;28;20053;-76
2023/05/18 11:47:41;;;;;;;10.88;2.65;;;16.10;99.90;;;;;;5048823;28;20037;-76
2023/05/18 11:50:09;;;;;;;11.68;2.80;;;15.90;99.90;;;;;;5044640;28;20518;-76
2023/05/18 11:52:48;;;;;;;10.65;2.60;;;15.80;99.90;;;;;;5040809;28;20521;-75
2023/05/18 11:55:15;;;;;;;11.50;2.78;;;15.80;99.90;;;;;;5049144;28;20045;-76
2023/05/18 11:57:47;;;;;;;12.90;3.08;;;15.90;99.90;;;;;;5048135;28;20048;-76
2023/05/18 12:00:14;;;;;;;9.73;2.65;;;15.80;99.90;;;;;;5051663;28;20088;-77
2023/05/18 12:02:45;;;;;;;9.23;2.42;;;15.80;99.90;;;;;;5045869;28;20048;-77
2023/05/18 12:05:12;;;;;;;9.98;2.63;;;15.80;99.90;;;;;;5058699;28;20041;-77
2023/05/18 12:07:39;;;;;;;10.48;2.85;;;15.70;99.90;;;;;;5052662;28;20045;-76
2023/05/18 12:10:10;;;;;;;11.70;2.72;;;15.50;99.90;;;;;;5066351;28;20510;-78
2023/05/18 12:12:37;;;;;;;7.22;2.35;;;15.30;99.90;;;;;;5061899;28;20124;-77
2023/05/18 12:15:05;;;;;;;10.48;2.50;;;15.30;99.90;;;;;;5047483;28;20040;-75
2023/05/18 12:17:39;;;;;;;10.82;2.55;;;15.10;99.90;;;;;;5055466;28;20044;-75
2023/05/18 12:20:06;;;;;;;9.48;3.05;;;15.10;99.90;;;;;;5045047;28;20401;-76
2023/05/18 12:22:32;;;;;;;10.27;2.63;;;14.90;99.90;;;;;;5050915;28;20399;-75
2023/05/18 12:24:58;;;;;;;9.80;2.45;;;14.90;99.90;;;;;;5041035;28;20043;-75
2023/05/18 12:27:25;;;;;;;7.70;2.40;;;15.00;99.90;;;;;;5058375;28;20047;-75
2023/05/18 12:29:51;;;;;;;12.63;2.67;;;14.90;99.90;;;;;;5044536;28;20036;-75
2023/05/18 12:32:18;;;;;;;9.00;2.58;;;15.00;99.90;;;;;;5029544;28;20035;-74
2023/05/18 12:34:44;;;;;;;9.90;2.40;;;15.20;99.90;;;;;;5033013;28;20075;-75
2023/05/18 12:37:09;;;;;;;11.70;3.08;;;15.20;99.90;;;;;;5059704;28;20075;-76
2023/05/18 12:39:36;;;;;;;9.40;2.95;;;15.30;99.90;;;;;;5039911;28;20044;-75
2023/05/18 12:42:13;;;;;;;9.02;2.65;;;15.40;99.90;;;;;;5039653;28;20501;-76
2023/05/18 12:44:42;;;;;;;10.63;3.20;;;15.60;99.90;;;;;;5034290;28;20116;-75
2023/05/18 12:47:12;;;;;;;9.02;2.50;;;15.60;99.90;;;;;;5059641;28;20070;-76
2023/05/18 12:49:39;;;;;;;13.48;2.90;;;15.50;99.90;;;;;;5043981;28;20060;-75
2023/05/18 12:52:15;;;;;;;10.85;2.80;;;15.50;99.90;;;;;;5053324;28;20402;-75